sensor_id;sensor_type;location;lat;lon;timestamp;P1;durP1;ratioP1;P2;durP2;ratioP2
17858;SDS011;35426;30.698;104.050;2022-11-15T00:02:26;50.60;;;28.00;;
17858;SDS011;35426;30.698;104.050;2022-11-15T00:05:18;48.97;;;28.00;;
17858;SDS011;35426;30.698;104.050;2022-11-15T00:08:11;47.80;;;28.10;;
17858;SDS011;35426;30.698;104.050;2022-11-15T00:11:04;48.17;;;27.80;;
17858;SDS011;35426;30.698;104.050;2022-11-15T00:14:02;44.00;;;27.43;;
17858;SDS011;35426;30.698;104.050;2022-11-15T00:16:55;51.80;;;27.13;;
17858;SDS011;35426;30.698;104.050;2022-11-15T00:19:48;47.53;;;26.47;;
17858;SDS011;35426;30.698;104.050;2022-11-15T00:22:40;46.47;;;26.73;;
17858;SDS011;35426;30.698;104.050;2022-11-15T00:25:32;46.87;;;26.87;;
17858;SDS011;35426;30.698;104.050;2022-11-15T00:28:26;52.90;;;27.40;;
17858;SDS011;35426;30.698;104.050;2022-11-15T00:31:20;42.50;;;26.30;;
17858;SDS011;35426;30.698;104.050;2022-11-15T00:34:12;44.90;;;26.40;;
17858;SDS011;35426;30.698;104.050;2022-11-15T00:37:06;46.93;;;26.23;;
17858;SDS011;35426;30.698;104.050;2022-11-15T00:39:58;50.67;;;25.00;;
17858;SDS011;35426;30.698;104.050;2022-11-15T00:42:53;45.90;;;25.60;;
17858;SDS011;35426;30.698;104.050;2022-11-15T00:45:46;45.67;;;24.57;;
17858;SDS011;35426;30.698;104.050;2022-11-15T00:48:40;42.90;;;24.97;;
17858;SDS011;35426;30.698;104.050;2022-11-15T00:51:32;46.97;;;25.57;;
17858;SDS011;35426;30.698;104.050;2022-11-15T00:54:25;44.53;;;24.87;;
17858;SDS011;35426;30.698;104.050;2022-11-15T00:57:25;39.80;;;24.07;;
17858;SDS011;35426;30.698;104.050;2022-11-15T01:00:17;41.90;;;24.53;;
17858;SDS011;35426;30.698;104.050;2022-11-15T01:03:10;41.63;;;23.77;;
17858;SDS011;35426;30.698;104.050;2022-11-15T01:06:05;46.80;;;24.30;;
17858;SDS011;35426;30.698;104.050;2022-11-15T01:08:59;46.60;;;25.77;;
17858;SDS011;35426;30.698;104.050;2022-11-15T01:11:53;44.67;;;25.27;;
17858;SDS011;35426;30.698;104.050;2022-11-15T01:14:46;43.97;;;24.73;;
17858;SDS011;35426;30.698;104.050;2022-11-15T01:17:40;46.87;;;25.93;;
17858;SDS011;35426;30.698;104.050;2022-11-15T01:20:32;48.17;;;25.70;;
17858;SDS011;35426;30.698;104.050;2022-11-15T01:23:28;46.07;;;25.53;;
17858;SDS011;35426;30.698;104.050;2022-11-15T01:26:25;50.87;;;25.13;;
17858;SDS011;35426;30.698;104.050;2022-11-15T01:29:17;40.07;;;25.10;;
17858;SDS011;35426;30.698;104.050;2022-11-15T01:32:11;45.60;;;24.23;;
17858;SDS011;35426;30.698;104.050;2022-11-15T01:35:04;48.73;;;24.43;;
17858;SDS011;35426;30.698;104.050;2022-11-15T01:37:57;40.33;;;24.87;;
17858;SDS011;35426;30.698;104.050;2022-11-15T01:40:51;40.00;;;24.07;;
17858;SDS011;35426;30.698;104.050;2022-11-15T01:43:44;45.70;;;23.77;;
17858;SDS011;35426;30.698;104.050;2022-11-15T01:46:40;45.73;;;24.57;;
17858;SDS011;35426;30.698;104.050;2022-11-15T01:49:47;47.13;;;24.53;;
17858;SDS011;35426;30.698;104.050;2022-11-15T01:52:46;45.67;;;25.83;;
17858;SDS011;35426;30.698;104.050;2022-11-15T01:55:39;44.23;;;24.60;;
17858;SDS011;35426;30.698;104.050;2022-11-15T01:58:33;41.37;;;24.33;;
17858;SDS011;35426;30.698;104.050;2022-11-15T02:01:27;44.33;;;24.20;;
17858;SDS011;35426;30.698;104.050;2022-11-15T02:04:21;41.97;;;23.57;;
17858;SDS011;35426;30.698;104.050;2022-11-15T02:07:18;47.17;;;24.50;;
17858;SDS011;35426;30.698;104.050;2022-11-15T02:10:13;43.40;;;23.93;;
17858;SDS011;35426;30.698;104.050;2022-11-15T02:13:08;44.77;;;26.63;;
17858;SDS011;35426;30.698;104.050;2022-11-15T02:16:06;51.20;;;28.57;;
17858;SDS011;35426;30.698;104.050;2022-11-15T02:19:08;48.93;;;27.47;;
17858;SDS011;35426;30.698;104.050;2022-11-15T02:22:19;61.00;;;27.83;;
17858;SDS011;35426;30.698;104.050;2022-11-15T02:25:37;52.90;;;28.50;;
17858;SDS011;35426;30.698;104.050;2022-11-15T02:28:44;52.73;;;28.93;;
17858;SDS011;35426;30.698;104.050;2022-11-15T02:31:48;64.50;;;30.40;;
17858;SDS011;35426;30.698;104.050;2022-11-15T02:34:48;52.07;;;29.20;;
17858;SDS011;35426;30.698;104.050;2022-11-15T02:37:47;61.30;;;31.77;;
17858;SDS011;35426;30.698;104.050;2022-11-15T02:40:49;55.67;;;31.77;;
17858;SDS011;35426;30.698;104.050;2022-11-15T02:43:49;55.93;;;30.97;;
17858;SDS011;35426;30.698;104.050;2022-11-15T02:46:45;57.50;;;30.77;;
17858;SDS011;35426;30.698;104.050;2022-11-15T02:50:03;55.93;;;30.10;;
17858;SDS011;35426;30.698;104.050;2022-11-15T02:53:00;56.90;;;32.47;;
17858;SDS011;35426;30.698;104.050;2022-11-15T02:55:53;60.27;;;33.33;;
17858;SDS011;35426;30.698;104.050;2022-11-15T03:02:20;57.83;;;32.17;;
17858;SDS011;35426;30.698;104.050;2022-11-15T03:05:27;57.03;;;33.20;;
17858;SDS011;35426;30.698;104.050;2022-11-15T03:08:26;62.67;;;35.37;;
17858;SDS011;35426;30.698;104.050;2022-11-15T03:11:22;69.10;;;35.50;;
17858;SDS011;35426;30.698;104.050;2022-11-15T03:14:18;67.43;;;35.13;;
17858;SDS011;35426;30.698;104.050;2022-11-15T03:17:15;58.80;;;33.80;;
17858;SDS011;35426;30.698;104.050;2022-11-15T03:20:14;59.73;;;33.57;;
17858;SDS011;35426;30.698;104.050;2022-11-15T03:23:19;61.23;;;35.73;;
17858;SDS011;35426;30.698;104.050;2022-11-15T03:26:13;59.23;;;34.60;;
17858;SDS011;35426;30.698;104.050;2022-11-15T03:29:08;59.73;;;33.97;;
17858;SDS011;35426;30.698;104.050;2022-11-15T03:32:05;63.30;;;35.23;;
17858;SDS011;35426;30.698;104.050;2022-11-15T03:35:05;63.43;;;35.37;;
17858;SDS011;35426;30.698;104.050;2022-11-15T03:38:00;65.43;;;34.73;;
17858;SDS011;35426;30.698;104.050;2022-11-15T03:41:00;64.77;;;34.60;;
17858;SDS011;35426;30.698;104.050;2022-11-15T03:43:57;62.00;;;35.43;;
17858;SDS011;35426;30.698;104.050;2022-11-15T03:46:56;63.07;;;35.53;;
17858;SDS011;35426;30.698;104.050;2022-11-15T03:49:55;60.67;;;35.57;;
17858;SDS011;35426;30.698;104.050;2022-11-15T03:52:53;66.07;;;36.13;;
17858;SDS011;35426;30.698;104.050;2022-11-15T03:55:46;71.47;;;37.83;;
17858;SDS011;35426;30.698;104.050;2022-11-15T03:58:38;68.10;;;36.83;;
17858;SDS011;35426;30.698;104.050;2022-11-15T04:01:30;65.33;;;36.73;;
17858;SDS011;35426;30.698;104.050;2022-11-15T04:04:22;64.33;;;36.43;;
17858;SDS011;35426;30.698;104.050;2022-11-15T04:07:16;66.60;;;35.90;;
17858;SDS011;35426;30.698;104.050;2022-11-15T04:10:13;67.73;;;37.40;;
17858;SDS011;35426;30.698;104.050;2022-11-15T04:13:06;67.10;;;36.27;;
17858;SDS011;35426;30.698;104.050;2022-11-15T04:15:58;69.60;;;38.43;;
17858;SDS011;35426;30.698;104.050;2022-11-15T04:18:54;76.93;;;41.27;;
17858;SDS011;35426;30.698;104.050;2022-11-15T04:21:59;71.13;;;40.00;;
17858;SDS011;35426;30.698;104.050;2022-11-15T04:25:11;78.07;;;42.27;;
17858;SDS011;35426;30.698;104.050;2022-11-15T04:28:09;74.13;;;43.87;;
17858;SDS011;35426;30.698;104.050;2022-11-15T04:31:01;80.93;;;46.27;;
17858;SDS011;35426;30.698;104.050;2022-11-15T04:33:58;86.97;;;45.77;;
17858;SDS011;35426;30.698;104.050;2022-11-15T04:36:55;80.17;;;44.23;;
17858;SDS011;35426;30.698;104.050;2022-11-15T04:40:03;75.90;;;44.13;;
17858;SDS011;35426;30.698;104.050;2022-11-15T04:42:58;93.20;;;48.60;;
17858;SDS011;35426;30.698;104.050;2022-11-15T04:45:50;85.63;;;47.13;;
17858;SDS011;35426;30.698;104.050;2022-11-15T04:48:43;81.43;;;47.70;;
17858;SDS011;35426;30.698;104.050;2022-11-15T04:51:42;83.37;;;49.57;;
17858;SDS011;35426;30.698;104.050;2022-11-15T04:54:35;81.17;;;47.73;;
17858;SDS011;35426;30.698;104.050;2022-11-15T04:57:29;87.63;;;49.27;;
17858;SDS011;35426;30.698;104.050;2022-11-15T05:00:24;86.80;;;48.47;;
17858;SDS011;35426;30.698;104.050;2022-11-15T05:03:17;84.10;;;47.87;;
17858;SDS011;35426;30.698;104.050;2022-11-15T05:06:25;76.83;;;44.87;;
17858;SDS011;35426;30.698;104.050;2022-11-15T05:09:19;81.80;;;46.17;;
17858;SDS011;35426;30.698;104.050;2022-11-15T05:12:12;83.00;;;48.77;;
17858;SDS011;35426;30.698;104.050;2022-11-15T05:15:04;86.10;;;50.60;;
17858;SDS011;35426;30.698;104.050;2022-11-15T05:18:00;95.47;;;51.37;;
17858;SDS011;35426;30.698;104.050;2022-11-15T05:20:52;88.83;;;50.93;;
17858;SDS011;35426;30.698;104.050;2022-11-15T05:23:44;100.40;;;55.40;;
17858;SDS011;35426;30.698;104.050;2022-11-15T05:26:37;102.07;;;55.73;;
17858;SDS011;35426;30.698;104.050;2022-11-15T05:29:30;102.87;;;56.57;;
17858;SDS011;35426;30.698;104.050;2022-11-15T05:32:23;103.50;;;56.50;;
17858;SDS011;35426;30.698;104.050;2022-11-15T05:35:18;101.83;;;55.77;;
17858;SDS011;35426;30.698;104.050;2022-11-15T05:38:16;99.30;;;55.70;;
17858;SDS011;35426;30.698;104.050;2022-11-15T05:41:09;96.83;;;55.97;;
17858;SDS011;35426;30.698;104.050;2022-11-15T05:44:03;97.47;;;56.13;;
17858;SDS011;35426;30.698;104.050;2022-11-15T05:46:59;104.73;;;57.07;;
17858;SDS011;35426;30.698;104.050;2022-11-15T05:49:54;109.67;;;58.23;;
17858;SDS011;35426;30.698;104.050;2022-11-15T05:52:50;105.77;;;56.93;;
17858;SDS011;35426;30.698;104.050;2022-11-15T05:55:50;109.70;;;58.07;;
17858;SDS011;35426;30.698;104.050;2022-11-15T05:58:43;106.80;;;57.70;;
17858;SDS011;35426;30.698;104.050;2022-11-15T06:01:42;106.20;;;57.60;;
17858;SDS011;35426;30.698;104.050;2022-11-15T06:04:35;101.50;;;56.27;;
17858;SDS011;35426;30.698;104.050;2022-11-15T06:07:27;111.13;;;59.07;;
17858;SDS011;35426;30.698;104.050;2022-11-15T06:10:23;108.70;;;59.20;;
17858;SDS011;35426;30.698;104.050;2022-11-15T06:13:16;111.67;;;60.40;;
17858;SDS011;35426;30.698;104.050;2022-11-15T06:16:08;116.13;;;60.03;;
17858;SDS011;35426;30.698;104.050;2022-11-15T06:19:00;109.23;;;58.73;;
17858;SDS011;35426;30.698;104.050;2022-11-15T06:21:53;108.43;;;57.63;;
17858;SDS011;35426;30.698;104.050;2022-11-15T06:24:45;111.77;;;58.23;;
17858;SDS011;35426;30.698;104.050;2022-11-15T06:27:42;103.33;;;58.00;;
17858;SDS011;35426;30.698;104.050;2022-11-15T06:30:41;107.03;;;59.00;;
17858;SDS011;35426;30.698;104.050;2022-11-15T06:33:38;109.10;;;58.83;;
17858;SDS011;35426;30.698;104.050;2022-11-15T06:36:31;106.40;;;60.20;;
17858;SDS011;35426;30.698;104.050;2022-11-15T06:39:26;113.67;;;58.73;;
17858;SDS011;35426;30.698;104.050;2022-11-15T06:42:18;103.07;;;56.80;;
17858;SDS011;35426;30.698;104.050;2022-11-15T06:45:12;116.43;;;59.00;;
17858;SDS011;35426;30.698;104.050;2022-11-15T06:48:04;103.27;;;58.40;;
17858;SDS011;35426;30.698;104.050;2022-11-15T06:51:01;107.20;;;58.20;;
17858;SDS011;35426;30.698;104.050;2022-11-15T06:53:53;113.90;;;57.53;;
17858;SDS011;35426;30.698;104.050;2022-11-15T06:56:47;109.17;;;59.43;;
17858;SDS011;35426;30.698;104.050;2022-11-15T06:59:39;113.47;;;58.37;;
17858;SDS011;35426;30.698;104.050;2022-11-15T07:02:33;103.30;;;58.97;;
17858;SDS011;35426;30.698;104.050;2022-11-15T07:05:26;103.00;;;59.87;;
17858;SDS011;35426;30.698;104.050;2022-11-15T07:08:19;106.03;;;57.43;;
17858;SDS011;35426;30.698;104.050;2022-11-15T07:11:13;111.37;;;60.17;;
17858;SDS011;35426;30.698;104.050;2022-11-15T07:14:05;114.10;;;62.97;;
17858;SDS011;35426;30.698;104.050;2022-11-15T07:16:57;103.33;;;60.33;;
17858;SDS011;35426;30.698;104.050;2022-11-15T07:19:54;101.93;;;61.03;;
17858;SDS011;35426;30.698;104.050;2022-11-15T07:22:46;106.53;;;63.70;;
17858;SDS011;35426;30.698;104.050;2022-11-15T07:25:39;118.03;;;63.47;;
17858;SDS011;35426;30.698;104.050;2022-11-15T07:28:31;112.17;;;61.97;;
17858;SDS011;35426;30.698;104.050;2022-11-15T07:31:24;117.97;;;61.60;;
17858;SDS011;35426;30.698;104.050;2022-11-15T07:34:17;110.30;;;61.80;;
17858;SDS011;35426;30.698;104.050;2022-11-15T07:37:13;109.43;;;62.17;;
17858;SDS011;35426;30.698;104.050;2022-11-15T07:40:05;115.90;;;61.80;;
17858;SDS011;35426;30.698;104.050;2022-11-15T07:43:02;120.00;;;64.07;;
17858;SDS011;35426;30.698;104.050;2022-11-15T07:45:56;111.87;;;63.30;;
17858;SDS011;35426;30.698;104.050;2022-11-15T07:48:48;114.43;;;60.83;;
17858;SDS011;35426;30.698;104.050;2022-11-15T07:51:40;112.03;;;61.17;;
17858;SDS011;35426;30.698;104.050;2022-11-15T07:54:34;115.33;;;62.83;;
17858;SDS011;35426;30.698;104.050;2022-11-15T07:57:27;117.97;;;60.87;;
17858;SDS011;35426;30.698;104.050;2022-11-15T08:00:19;116.80;;;62.27;;
17858;SDS011;35426;30.698;104.050;2022-11-15T08:03:12;111.53;;;62.60;;
17858;SDS011;35426;30.698;104.050;2022-11-15T08:06:07;122.13;;;63.03;;
17858;SDS011;35426;30.698;104.050;2022-11-15T08:08:59;116.03;;;62.47;;
17858;SDS011;35426;30.698;104.050;2022-11-15T08:11:53;111.10;;;61.27;;
17858;SDS011;35426;30.698;104.050;2022-11-15T08:14:47;111.93;;;60.40;;
17858;SDS011;35426;30.698;104.050;2022-11-15T08:17:39;115.33;;;60.47;;
17858;SDS011;35426;30.698;104.050;2022-11-15T08:20:32;109.23;;;60.97;;
17858;SDS011;35426;30.698;104.050;2022-11-15T08:23:24;115.10;;;61.40;;
17858;SDS011;35426;30.698;104.050;2022-11-15T08:26:17;110.50;;;59.40;;
17858;SDS011;35426;30.698;104.050;2022-11-15T08:29:12;106.00;;;60.97;;
17858;SDS011;35426;30.698;104.050;2022-11-15T08:32:05;114.60;;;60.27;;
17858;SDS011;35426;30.698;104.050;2022-11-15T08:34:57;114.77;;;61.27;;
17858;SDS011;35426;30.698;104.050;2022-11-15T08:37:52;111.40;;;61.10;;
17858;SDS011;35426;30.698;104.050;2022-11-15T08:40:45;113.43;;;61.00;;
17858;SDS011;35426;30.698;104.050;2022-11-15T08:43:37;111.43;;;60.00;;
17858;SDS011;35426;30.698;104.050;2022-11-15T08:46:49;113.13;;;60.87;;
17858;SDS011;35426;30.698;104.050;2022-11-15T08:49:41;118.27;;;61.40;;
17858;SDS011;35426;30.698;104.050;2022-11-15T08:52:34;105.10;;;58.57;;
17858;SDS011;35426;30.698;104.050;2022-11-15T08:55:27;116.03;;;59.83;;
17858;SDS011;35426;30.698;104.050;2022-11-15T08:58:20;118.33;;;62.93;;
17858;SDS011;35426;30.698;104.050;2022-11-15T09:01:15;111.40;;;63.33;;
17858;SDS011;35426;30.698;104.050;2022-11-15T09:04:10;112.40;;;61.43;;
17858;SDS011;35426;30.698;104.050;2022-11-15T09:07:04;107.63;;;57.90;;
17858;SDS011;35426;30.698;104.050;2022-11-15T09:09:56;101.43;;;53.77;;
17858;SDS011;35426;30.698;104.050;2022-11-15T09:12:49;96.20;;;51.30;;
17858;SDS011;35426;30.698;104.050;2022-11-15T09:15:42;88.37;;;46.67;;
17858;SDS011;35426;30.698;104.050;2022-11-15T09:18:35;83.33;;;47.40;;
17858;SDS011;35426;30.698;104.050;2022-11-15T09:21:29;87.27;;;48.63;;
17858;SDS011;35426;30.698;104.050;2022-11-15T09:24:21;88.40;;;47.43;;
17858;SDS011;35426;30.698;104.050;2022-11-15T09:27:14;84.00;;;48.23;;
17858;SDS011;35426;30.698;104.050;2022-11-15T09:30:07;85.57;;;49.07;;
17858;SDS011;35426;30.698;104.050;2022-11-15T09:33:06;85.10;;;47.70;;
17858;SDS011;35426;30.698;104.050;2022-11-15T09:36:03;83.77;;;46.73;;
17858;SDS011;35426;30.698;104.050;2022-11-15T09:38:59;87.10;;;47.97;;
17858;SDS011;35426;30.698;104.050;2022-11-15T09:45:18;78.97;;;45.57;;
17858;SDS011;35426;30.698;104.050;2022-11-15T09:51:35;82.23;;;45.77;;
17858;SDS011;35426;30.698;104.050;2022-11-15T09:54:21;85.20;;;46.30;;
17858;SDS011;35426;30.698;104.050;2022-11-15T09:57:24;81.57;;;46.03;;
17858;SDS011;35426;30.698;104.050;2022-11-15T10:00:09;82.73;;;46.73;;
17858;SDS011;35426;30.698;104.050;2022-11-15T10:03:09;84.77;;;47.13;;
17858;SDS011;35426;30.698;104.050;2022-11-15T10:05:46;84.67;;;45.73;;
17858;SDS011;35426;30.698;104.050;2022-11-15T10:08:27;80.50;;;46.73;;
17858;SDS011;35426;30.698;104.050;2022-11-15T10:11:22;86.37;;;46.70;;
17858;SDS011;35426;30.698;104.050;2022-11-15T10:14:10;93.40;;;47.03;;
17858;SDS011;35426;30.698;104.050;2022-11-15T10:17:05;80.70;;;46.23;;
17858;SDS011;35426;30.698;104.050;2022-11-15T10:20:07;77.60;;;45.57;;
17858;SDS011;35426;30.698;104.050;2022-11-15T10:22:49;88.07;;;47.17;;
17858;SDS011;35426;30.698;104.050;2022-11-15T10:25:26;82.07;;;45.93;;
17858;SDS011;35426;30.698;104.050;2022-11-15T10:28:06;81.33;;;45.97;;
17858;SDS011;35426;30.698;104.050;2022-11-15T10:30:47;77.13;;;43.47;;
17858;SDS011;35426;30.698;104.050;2022-11-15T10:33:32;78.17;;;44.13;;
17858;SDS011;35426;30.698;104.050;2022-11-15T10:36:17;79.20;;;43.90;;
17858;SDS011;35426;30.698;104.050;2022-11-15T10:38:57;79.23;;;43.60;;
17858;SDS011;35426;30.698;104.050;2022-11-15T10:41:35;74.00;;;42.07;;
17858;SDS011;35426;30.698;104.050;2022-11-15T10:44:18;73.23;;;41.53;;
17858;SDS011;35426;30.698;104.050;2022-11-15T10:50:11;78.80;;;41.80;;
17858;SDS011;35426;30.698;104.050;2022-11-15T10:53:04;72.13;;;41.00;;
17858;SDS011;35426;30.698;104.050;2022-11-15T10:55:52;68.80;;;39.77;;
17858;SDS011;35426;30.698;104.050;2022-11-15T10:58:33;83.10;;;41.53;;
17858;SDS011;35426;30.698;104.050;2022-11-15T11:01:14;73.17;;;41.77;;
17858;SDS011;35426;30.698;104.050;2022-11-15T11:04:00;73.77;;;39.07;;
17858;SDS011;35426;30.698;104.050;2022-11-15T11:06:46;69.20;;;39.13;;
17858;SDS011;35426;30.698;104.050;2022-11-15T11:09:28;75.00;;;39.37;;
17858;SDS011;35426;30.698;104.050;2022-11-15T11:12:05;73.50;;;39.50;;
17858;SDS011;35426;30.698;104.050;2022-11-15T11:14:44;71.40;;;40.77;;
17858;SDS011;35426;30.698;104.050;2022-11-15T11:17:21;76.70;;;41.20;;
17858;SDS011;35426;30.698;104.050;2022-11-15T11:20:02;75.00;;;38.87;;
17858;SDS011;35426;30.698;104.050;2022-11-15T11:22:46;70.77;;;39.40;;
17858;SDS011;35426;30.698;104.050;2022-11-15T11:25:34;70.10;;;38.83;;
17858;SDS011;35426;30.698;104.050;2022-11-15T11:28:17;68.47;;;37.83;;
17858;SDS011;35426;30.698;104.050;2022-11-15T11:31:06;63.07;;;37.20;;
17858;SDS011;35426;30.698;104.050;2022-11-15T11:34:00;73.00;;;37.73;;
17858;SDS011;35426;30.698;104.050;2022-11-15T11:36:47;67.20;;;37.80;;
17858;SDS011;35426;30.698;104.050;2022-11-15T11:39:34;68.40;;;37.27;;
17858;SDS011;35426;30.698;104.050;2022-11-15T11:45:15;74.03;;;36.93;;
17858;SDS011;35426;30.698;104.050;2022-11-15T11:47:57;73.50;;;37.03;;
17858;SDS011;35426;30.698;104.050;2022-11-15T11:50:39;69.70;;;37.90;;
17858;SDS011;35426;30.698;104.050;2022-11-15T11:53:21;68.13;;;36.90;;
17858;SDS011;35426;30.698;104.050;2022-11-15T11:56:05;68.20;;;36.80;;
17858;SDS011;35426;30.698;104.050;2022-11-15T11:58:47;71.80;;;38.23;;
17858;SDS011;35426;30.698;104.050;2022-11-15T12:01:23;68.73;;;38.20;;
17858;SDS011;35426;30.698;104.050;2022-11-15T12:04:03;72.30;;;38.00;;
17858;SDS011;35426;30.698;104.050;2022-11-15T12:06:48;73.77;;;38.07;;
17858;SDS011;35426;30.698;104.050;2022-11-15T12:09:33;67.83;;;37.60;;
17858;SDS011;35426;30.698;104.050;2022-11-15T12:12:13;72.57;;;37.47;;
17858;SDS011;35426;30.698;104.050;2022-11-15T12:14:53;65.43;;;36.90;;
17858;SDS011;35426;30.698;104.050;2022-11-15T12:17:30;68.23;;;36.97;;
17858;SDS011;35426;30.698;104.050;2022-11-15T12:20:13;69.37;;;37.97;;
17858;SDS011;35426;30.698;104.050;2022-11-15T12:22:52;67.87;;;36.83;;
17858;SDS011;35426;30.698;104.050;2022-11-15T12:25:30;74.67;;;36.33;;
17858;SDS011;35426;30.698;104.050;2022-11-15T12:28:13;69.63;;;36.53;;
17858;SDS011;35426;30.698;104.050;2022-11-15T12:30:52;65.13;;;35.67;;
17858;SDS011;35426;30.698;104.050;2022-11-15T12:33:34;63.73;;;33.77;;
17858;SDS011;35426;30.698;104.050;2022-11-15T12:36:27;67.67;;;34.93;;
17858;SDS011;35426;30.698;104.050;2022-11-15T12:39:09;66.07;;;35.60;;
17858;SDS011;35426;30.698;104.050;2022-11-15T12:42:34;66.73;;;35.57;;
17858;SDS011;35426;30.698;104.050;2022-11-15T12:44:57;71.70;;;35.30;;
17858;SDS011;35426;30.698;104.050;2022-11-15T12:47:32;67.90;;;35.60;;
17858;SDS011;35426;30.698;104.050;2022-11-15T12:50:12;68.10;;;35.47;;
17858;SDS011;35426;30.698;104.050;2022-11-15T12:56:17;69.20;;;35.87;;
17858;SDS011;35426;30.698;104.050;2022-11-15T12:58:56;63.70;;;33.20;;
17858;SDS011;35426;30.698;104.050;2022-11-15T13:04:33;65.13;;;33.30;;
17858;SDS011;35426;30.698;104.050;2022-11-15T13:07:07;58.67;;;33.07;;
17858;SDS011;35426;30.698;104.050;2022-11-15T13:10:07;55.43;;;30.83;;
17858;SDS011;35426;30.698;104.050;2022-11-15T13:13:07;61.40;;;32.57;;
17858;SDS011;35426;30.698;104.050;2022-11-15T13:15:52;60.53;;;31.03;;
17858;SDS011;35426;30.698;104.050;2022-11-15T13:18:31;61.13;;;30.47;;
17858;SDS011;35426;30.698;104.050;2022-11-15T13:21:20;63.17;;;30.30;;
17858;SDS011;35426;30.698;104.050;2022-11-15T13:24:13;58.43;;;30.47;;
17858;SDS011;35426;30.698;104.050;2022-11-15T13:26:49;62.73;;;30.73;;
17858;SDS011;35426;30.698;104.050;2022-11-15T13:29:26;60.53;;;31.87;;
17858;SDS011;35426;30.698;104.050;2022-11-15T13:32:02;62.63;;;31.47;;
17858;SDS011;35426;30.698;104.050;2022-11-15T13:34:38;64.90;;;33.23;;
17858;SDS011;35426;30.698;104.050;2022-11-15T13:37:29;70.10;;;33.80;;
17858;SDS011;35426;30.698;104.050;2022-11-15T13:43:15;66.80;;;32.13;;
17858;SDS011;35426;30.698;104.050;2022-11-15T13:46:10;63.50;;;32.47;;
17858;SDS011;35426;30.698;104.050;2022-11-15T13:48:50;68.90;;;32.70;;
17858;SDS011;35426;30.698;104.050;2022-11-15T13:51:29;63.47;;;32.87;;
17858;SDS011;35426;30.698;104.050;2022-11-15T13:54:09;67.37;;;33.30;;
17858;SDS011;35426;30.698;104.050;2022-11-15T13:56:52;61.90;;;32.20;;
17858;SDS011;35426;30.698;104.050;2022-11-15T13:59:30;58.80;;;31.07;;
17858;SDS011;35426;30.698;104.050;2022-11-15T14:02:13;60.07;;;31.47;;
17858;SDS011;35426;30.698;104.050;2022-11-15T14:04:55;59.33;;;30.63;;
17858;SDS011;35426;30.698;104.050;2022-11-15T14:07:30;60.80;;;30.90;;
17858;SDS011;35426;30.698;104.050;2022-11-15T14:10:24;62.50;;;32.10;;
17858;SDS011;35426;30.698;104.050;2022-11-15T14:13:11;56.23;;;31.33;;
17858;SDS011;35426;30.698;104.050;2022-11-15T14:16:14;59.17;;;31.17;;
17858;SDS011;35426;30.698;104.050;2022-11-15T14:18:57;68.50;;;37.00;;
17858;SDS011;35426;30.698;104.050;2022-11-15T14:21:34;71.17;;;39.07;;
17858;SDS011;35426;30.698;104.050;2022-11-15T14:24:17;75.07;;;39.87;;
17858;SDS011;35426;30.698;104.050;2022-11-15T14:26:54;74.67;;;39.53;;
17858;SDS011;35426;30.698;104.050;2022-11-15T14:29:30;80.03;;;41.23;;
17858;SDS011;35426;30.698;104.050;2022-11-15T14:32:12;83.47;;;41.17;;
17858;SDS011;35426;30.698;104.050;2022-11-15T14:34:53;79.07;;;40.70;;
17858;SDS011;35426;30.698;104.050;2022-11-15T14:37:34;83.17;;;41.90;;
17858;SDS011;35426;30.698;104.050;2022-11-15T14:40:12;79.20;;;42.10;;
17858;SDS011;35426;30.698;104.050;2022-11-15T14:42:49;75.50;;;40.40;;
17858;SDS011;35426;30.698;104.050;2022-11-15T14:45:26;75.80;;;39.60;;
17858;SDS011;35426;30.698;104.050;2022-11-15T14:48:04;75.83;;;40.73;;
17858;SDS011;35426;30.698;104.050;2022-11-15T14:50:44;81.83;;;40.10;;
17858;SDS011;35426;30.698;104.050;2022-11-15T14:53:19;76.23;;;40.17;;
17858;SDS011;35426;30.698;104.050;2022-11-15T14:55:54;78.07;;;39.27;;
17858;SDS011;35426;30.698;104.050;2022-11-15T14:58:30;67.80;;;37.93;;
17858;SDS011;35426;30.698;104.050;2022-11-15T15:01:09;71.43;;;38.27;;
17858;SDS011;35426;30.698;104.050;2022-11-15T15:03:49;84.80;;;40.80;;
17858;SDS011;35426;30.698;104.050;2022-11-15T15:06:30;69.63;;;38.37;;
17858;SDS011;35426;30.698;104.050;2022-11-15T15:09:05;73.97;;;37.87;;
17858;SDS011;35426;30.698;104.050;2022-11-15T15:11:44;77.60;;;37.63;;
17858;SDS011;35426;30.698;104.050;2022-11-15T15:14:22;66.37;;;36.67;;
17858;SDS011;35426;30.698;104.050;2022-11-15T15:16:57;70.70;;;37.27;;
17858;SDS011;35426;30.698;104.050;2022-11-15T15:19:32;70.57;;;39.03;;
17858;SDS011;35426;30.698;104.050;2022-11-15T15:22:13;71.23;;;38.20;;
17858;SDS011;35426;30.698;104.050;2022-11-15T15:24:51;71.03;;;37.10;;
17858;SDS011;35426;30.698;104.050;2022-11-15T15:27:27;71.57;;;37.87;;
17858;SDS011;35426;30.698;104.050;2022-11-15T15:30:03;63.17;;;36.03;;
17858;SDS011;35426;30.698;104.050;2022-11-15T15:32:38;63.77;;;36.77;;
17858;SDS011;35426;30.698;104.050;2022-11-15T15:35:13;71.63;;;36.43;;
17858;SDS011;35426;30.698;104.050;2022-11-15T15:37:52;68.27;;;36.53;;
17858;SDS011;35426;30.698;104.050;2022-11-15T15:40:27;72.13;;;35.90;;
17858;SDS011;35426;30.698;104.050;2022-11-15T15:43:03;68.93;;;35.87;;
17858;SDS011;35426;30.698;104.050;2022-11-15T15:45:39;66.70;;;35.83;;
17858;SDS011;35426;30.698;104.050;2022-11-15T15:48:15;69.90;;;35.33;;
17858;SDS011;35426;30.698;104.050;2022-11-15T15:50:49;70.77;;;36.17;;
17858;SDS011;35426;30.698;104.050;2022-11-15T15:53:26;65.83;;;35.50;;
17858;SDS011;35426;30.698;104.050;2022-11-15T15:56:01;67.80;;;35.20;;
17858;SDS011;35426;30.698;104.050;2022-11-15T16:01:29;72.40;;;35.83;;
17858;SDS011;35426;30.698;104.050;2022-11-15T16:04:04;63.87;;;35.77;;
17858;SDS011;35426;30.698;104.050;2022-11-15T16:06:39;68.93;;;35.77;;
17858;SDS011;35426;30.698;104.050;2022-11-15T16:09:21;71.63;;;35.77;;
17858;SDS011;35426;30.698;104.050;2022-11-15T16:12:09;72.17;;;36.63;;
17858;SDS011;35426;30.698;104.050;2022-11-15T16:14:46;79.10;;;38.77;;
17858;SDS011;35426;30.698;104.050;2022-11-15T16:17:23;70.70;;;36.93;;
17858;SDS011;35426;30.698;104.050;2022-11-15T16:20:03;68.77;;;36.40;;
17858;SDS011;35426;30.698;104.050;2022-11-15T16:22:40;67.53;;;35.00;;
17858;SDS011;35426;30.698;104.050;2022-11-15T16:25:18;67.00;;;36.77;;
17858;SDS011;35426;30.698;104.050;2022-11-15T16:27:54;68.13;;;36.60;;
17858;SDS011;35426;30.698;104.050;2022-11-15T16:30:30;74.23;;;36.80;;